OOLO2: Oologah Lake

Data processed at Thu Jan 23 2020 23:15


All information presented herein is the property of the government of the United States of America and may be revised or deleted at any time without prior notice.
Dissemination of this information without the expressed written consent of the Public Affairs Office, Tulsa District U.S. Army Corps of Engineers is strictly prohibited.
These data are gathered electronically and, as presented, have not undergone any form of quality control. These data are not guaranteed to be valid or correct.
Go to home page.
Go to station list.
Go to home page.

Upstream stations:

Downstream station:
Previous Day
Next Day
Current Day
    
SHEF ID:       OOLO2     Oologah Lake
STATION TYPE:  RESERVOIR
Flood Pool:  Bottom =   638.00, Top =   661.00

               PRECIP ELEVATION   STORAGE   TW-ELEV    INFLOW   RELEASE     STAGE  RIV-FLOW  AIR-TEMP  WIND-DIRWIND-SPEED REL-HUMID SOLAR-RAD   VOLTAGE  BAT-LOAD
                   in        ft     ac-ft        ft       cfs       cfs        ft       cfs         F       deg       mph         %      W/m2      volt      volt
              Ccp-Rev   Ccp-Rev   Ccp-Rev   Ccp-Rev  Rev-Regi  Rev-Regi   Ccp-Rev   Ccp-Rev   Ccp-Rev   Ccp-Rev   Ccp-Rev   Ccp-Rev   Ccp-Rev   Ccp-Rev   Ccp-Rev
(US/Central)
01/23 00:00      0.00    642.98    612435      ----      5639      8043     20.16      8788     35.92    152.20      3.40    100.14      0.00     13.45     13.29
01/23 01:00      0.00    642.97    612105      ----      5643      8043     20.16      8788     36.03    157.10      3.10    100.14      0.00     13.44     13.29
01/23 02:00      0.00    642.96    611775      ----      4844      8042     20.17      8801     36.12    157.50      3.00    100.13      0.00     13.44     13.29
01/23 03:00      0.00    642.96    611775      ----      4845      8042     20.18      8815     36.10    152.50      3.10    100.13      0.00     13.44     13.29
01/23 04:00      0.01    642.94    611115      ----      4046      8041     20.18      8815     36.12    151.70      3.00    100.13      0.00     13.44     13.29
01/23 05:00      0.00    642.94    611115      ----      3247      8041     20.18      8815     36.16    167.10      2.70    100.13      0.00     13.44     13.29
01/23 06:00      0.00    642.91    610124      ----      3248      8040     20.18      8815     36.12    152.90      3.00    100.13      0.00     13.44     13.29
01/23 07:00      0.00    642.90    609794      ----      3247      8039     20.18      8815     36.18    165.70      3.40    100.13      0.00     13.43     13.29
01/23 08:00      0.00    642.90    609794      ----      3246      8039     20.18      8815     36.46    170.40      3.10    100.13      0.00     13.44     13.29
01/23 09:00      0.00    642.88    609134      ----      5503      8038     20.18      8815     37.04    168.70      3.00    100.13      9.40     13.56     13.29
01/23 10:00      0.00    642.88    609134      ----      5503      8038     20.18      8815     38.53    184.30      3.80    100.13     29.50     13.55     13.29
01/23 11:00      0.00    642.89    609464      ----      4657      8038     20.18      8815     40.53    223.70      3.70    100.14    113.90     14.68     13.29
01/23 12:00      0.00    642.87    608804      ----      6161      8038     20.18      8815     42.93    264.70      5.00     95.94    130.10     13.82     13.05
01/23 13:00      0.00    642.86    608474      ----      5243      8037     20.17      8801     43.92    227.60      5.60     94.70     85.60     14.01     13.13
01/23 14:00      0.00    642.86    608474      ----      2984      8037     20.17      8801     45.61    231.40      6.40     86.91    143.60     13.72     13.13
01/23 15:00      0.00    642.85    608144      ----      2983      8036     20.16      8788     47.80    265.70      9.90     73.59    255.50     14.62     13.13
01/23 16:00      0.00    642.84    607814      ----      4273      8036     20.16      8788     48.20    267.70      4.50     72.24    108.40     13.57     13.13
01/23 17:00      0.00    642.81    606824      ----      2758      8035     20.15      8775     48.83    217.20      4.20     71.81     31.20     13.47     13.13
01/23 18:00      0.00    642.82    607154      ----      2076      8034     20.15      8775     47.50    248.80     12.60     74.37      0.00     13.41     13.29
01/23 19:00      0.00    642.79    606164      ----      3438      8034     20.15      8775     43.18    250.50     11.40     87.79      0.00     13.42     13.29
01/23 20:00      0.00    642.77    605504      ----      6845      8032     20.15      8775     41.00    247.80      7.80     89.59      0.00     13.35     13.29
01/23 21:00      0.00    642.77    605504      ----      4793      8032     20.15      8775     40.41    260.00     10.40     87.77      0.00     13.42     13.29
01/23 22:00      0.00    642.80    606494      ----      8207      8033     20.15      8775     39.31    270.20      9.50     89.42      0.00     13.42     13.29
01/23 23:00      0.00    642.77    605504      ----      4785      8033     20.15      8775     38.46    261.90     10.90     91.06      0.00     13.41     13.29